createdAt,value
2019-04-11T00:00:48.604Z,9.03
2019-04-11T00:03:35.585Z,9.23
2019-04-11T00:06:13.343Z,10.15
2019-04-11T00:08:50.559Z,10.55
2019-04-11T00:11:28.620Z,11.25
2019-04-11T00:14:07.456Z,8.95
2019-04-11T00:16:45.631Z,8.23
2019-04-11T00:19:23.228Z,9.63
2019-04-11T00:22:01.550Z,9.13
2019-04-11T00:24:39.560Z,10.05
2019-04-11T00:27:17.605Z,8.35
2019-04-11T00:29:55.493Z,8.10
2019-04-11T00:32:33.807Z,7.87
2019-04-11T00:35:11.248Z,7.12
2019-04-11T00:37:49.528Z,7.90
2019-04-11T00:40:27.025Z,7.72
2019-04-11T00:43:05.371Z,7.53
2019-04-11T00:45:43.576Z,7.85
2019-04-11T00:48:21.777Z,6.80
2019-04-11T00:51:01.350Z,7.05
2019-04-11T00:53:40.374Z,7.60
2019-04-11T00:56:19.935Z,7.00
2019-04-11T00:58:58.695Z,7.87
2019-04-11T01:01:36.751Z,7.20
2019-04-11T01:04:14.179Z,6.60
2019-04-11T01:06:52.229Z,6.25
2019-04-11T01:09:30.579Z,6.87
2019-04-11T01:12:08.437Z,7.28
2019-04-11T01:14:46.906Z,8.10
2019-04-11T01:17:25.299Z,8.80
2019-04-11T01:20:03.007Z,7.33
2019-04-11T01:22:41.010Z,8.58
2019-04-11T01:25:20.107Z,8.00
2019-04-11T01:27:58.461Z,7.97
2019-04-11T01:30:43.129Z,8.68
2019-04-11T01:33:20.746Z,9.70
2019-04-11T01:35:59.570Z,10.70
2019-04-11T01:38:42.019Z,10.03
2019-04-11T01:41:20.520Z,9.60
2019-04-11T01:44:02.190Z,9.60
2019-04-11T01:46:38.831Z,9.63
2019-04-11T01:49:22.592Z,10.30
2019-04-11T01:52:00.174Z,9.43
2019-04-11T01:54:39.756Z,9.35
2019-04-11T01:57:18.058Z,9.43
2019-04-11T01:59:55.659Z,10.32
2019-04-11T02:02:56.997Z,8.68
2019-04-11T02:05:35.041Z,9.13
2019-04-11T02:08:13.698Z,8.43
2019-04-11T02:10:52.911Z,8.40
2019-04-11T02:13:32.154Z,10.03
2019-04-11T02:16:10.583Z,10.03
2019-04-11T02:18:48.513Z,11.08
2019-04-11T02:21:25.874Z,11.30
2019-04-11T02:24:20.621Z,10.50
2019-04-11T02:27:16.897Z,10.20
2019-04-11T02:29:56.743Z,9.75
2019-04-11T02:32:36.963Z,10.43
2019-04-11T02:35:15.491Z,9.55
2019-04-11T02:37:57.081Z,10.88
2019-04-11T02:40:36.804Z,13.13
2019-04-11T02:43:15.903Z,12.07
2019-04-11T02:46:08.821Z,11.57
2019-04-11T02:48:35.322Z,11.30
2019-04-11T02:51:14.598Z,9.95
2019-04-11T02:53:54.295Z,11.00
2019-04-11T02:56:33.427Z,12.07
2019-04-11T02:59:15.389Z,11.93
2019-04-11T03:01:55.870Z,11.38
2019-04-11T03:04:34.757Z,11.73
2019-04-11T03:07:14.056Z,10.53
2019-04-11T03:09:53.397Z,11.68
2019-04-11T03:12:33.347Z,12.40
2019-04-11T03:15:27.171Z,10.65
2019-04-11T03:17:59.517Z,11.15
2019-04-11T03:20:40.875Z,12.43
2019-04-11T03:23:16.472Z,10.78
2019-04-11T03:25:54.345Z,10.63
2019-04-11T03:28:35.325Z,10.60
2019-04-11T03:31:58.954Z,11.65
2019-04-11T03:37:17.267Z,11.10
2019-04-11T03:39:29.279Z,11.15
2019-04-11T03:42:03.958Z,12.43
2019-04-11T03:44:39.451Z,11.45
2019-04-11T03:47:29.148Z,12.03
2019-04-11T03:49:55.829Z,11.08
2019-04-11T03:52:30.612Z,10.82
2019-04-11T03:55:11.135Z,10.38
2019-04-11T03:57:51.805Z,10.72
2019-04-11T04:00:35.422Z,12.13
2019-04-11T04:03:11.219Z,12.58
2019-04-11T04:05:50.462Z,12.50
2019-04-11T04:08:34.240Z,12.17
2019-04-11T04:11:23.184Z,12.13
2019-04-11T04:14:26.245Z,10.15
2019-04-11T04:17:21.383Z,10.63
2019-04-11T04:20:19.400Z,11.00
2019-04-11T04:23:11.893Z,10.95
2019-04-11T04:25:49.459Z,10.18
2019-04-11T04:28:31.774Z,10.30
2019-04-11T04:31:11.472Z,10.78
2019-04-11T04:33:48.956Z,9.60
2019-04-11T04:36:28.511Z,10.65
2019-04-11T04:39:10.536Z,10.75
2019-04-11T04:41:58.226Z,9.40
2019-04-11T04:44:27.617Z,8.53
2019-04-11T04:47:15.310Z,9.20
2019-04-11T04:49:45.976Z,9.58
2019-04-11T04:52:25.219Z,9.60
2019-04-11T04:55:05.565Z,9.30
2019-04-11T04:57:42.978Z,9.65
2019-04-11T05:00:23.384Z,9.80
2019-04-11T05:03:02.189Z,9.63
2019-04-11T05:05:39.949Z,9.20
2019-04-11T05:08:18.558Z,9.85
2019-04-11T05:10:58.553Z,9.38
2019-04-11T05:13:36.706Z,8.43
2019-04-11T05:16:17.812Z,9.68
2019-04-11T05:18:55.201Z,8.58
2019-04-11T05:21:35.177Z,9.05
2019-04-11T05:24:14.513Z,9.33
2019-04-11T05:26:52.340Z,7.85
2019-04-11T05:29:30.483Z,9.63
2019-04-11T05:32:09.708Z,8.73
2019-04-11T05:34:47.236Z,9.28
2019-04-11T05:37:24.468Z,9.85
2019-04-11T05:40:03.113Z,10.58
2019-04-11T05:42:43.215Z,8.88
2019-04-11T05:45:22.642Z,9.60
2019-04-11T05:48:01.122Z,9.28
2019-04-11T05:50:47.123Z,9.15
2019-04-11T05:53:21.432Z,9.55
2019-04-11T05:56:01.581Z,9.10
2019-04-11T05:58:42.120Z,9.18
2019-04-11T06:01:27.356Z,9.35
2019-04-11T06:04:14.213Z,9.83
2019-04-11T06:07:00.130Z,10.20
2019-04-11T06:09:41.531Z,10.28
2019-04-11T06:12:50.496Z,10.72
2019-04-11T06:15:36.245Z,10.98
2019-04-11T06:18:27.023Z,10.90
2019-04-11T06:21:06.057Z,10.80
2019-04-11T06:24:16.213Z,10.32
2019-04-11T06:27:25.487Z,11.15
2019-04-11T06:30:24.713Z,12.00
2019-04-11T06:33:23.172Z,11.95
2019-04-11T06:36:26.641Z,11.30
2019-04-11T06:39:27.779Z,11.10
2019-04-11T06:42:12.895Z,10.80
2019-04-11T06:45:17.662Z,10.80
2019-04-11T06:48:07.384Z,11.15
2019-04-11T06:50:59.682Z,10.82
2019-04-11T06:53:41.962Z,11.08
2019-04-11T06:56:23.705Z,11.45
2019-04-11T06:59:07.982Z,10.78
2019-04-11T07:01:47.765Z,10.82
2019-04-11T07:04:38.273Z,10.53
2019-04-11T07:07:16.415Z,13.55
2019-04-11T07:09:59.867Z,10.48
2019-04-11T07:12:55.940Z,10.28
2019-04-11T07:15:37.690Z,11.08
2019-04-11T07:18:32.871Z,10.80
2019-04-11T07:21:12.305Z,11.50
2019-04-11T07:24:07.504Z,11.85
2019-04-11T07:27:00.726Z,11.95
2019-04-11T07:30:09.548Z,12.85
2019-04-11T07:32:47.764Z,12.47
2019-04-11T07:35:53.589Z,12.28
2019-04-11T07:38:39.284Z,12.45
2019-04-11T07:41:38.914Z,12.90
2019-04-11T07:44:17.582Z,12.70
2019-04-11T07:47:19.125Z,13.68
2019-04-11T07:49:55.649Z,12.28
2019-04-11T07:52:35.882Z,12.65
2019-04-11T07:55:14.209Z,11.73
2019-04-11T07:57:56.490Z,13.18
2019-04-11T08:01:01.497Z,12.18
2019-04-11T08:04:13.165Z,13.30
2019-04-11T08:07:17.976Z,13.20
2019-04-11T08:10:11.413Z,12.65
2019-04-11T08:12:49.904Z,13.08
2019-04-11T08:15:44.330Z,12.75
2019-04-11T08:18:39.312Z,12.23
2019-04-11T08:21:36.092Z,12.37
2019-04-11T08:24:20.504Z,11.78
2019-04-11T08:27:17.644Z,11.83
2019-04-11T08:29:58.271Z,11.95
2019-04-11T08:32:46.389Z,11.73
2019-04-11T08:35:51.975Z,12.03
2019-04-11T08:38:29.919Z,11.78
2019-04-11T08:41:26.025Z,12.25
2019-04-11T08:44:32.658Z,11.08
2019-04-11T08:47:16.275Z,12.00
2019-04-11T08:49:57.029Z,12.65
2019-04-11T08:52:44.509Z,11.00
2019-04-11T08:55:48.588Z,11.70
2019-04-11T08:58:33.095Z,11.75
2019-04-11T09:01:11.628Z,11.20
2019-04-11T09:04:18.544Z,11.22
2019-04-11T09:06:56.781Z,11.22
2019-04-11T09:09:51.518Z,11.43
2019-04-11T09:12:28.960Z,12.47
2019-04-11T09:15:24.495Z,12.63
2019-04-11T09:18:12.534Z,12.30
2019-04-11T09:21:07.724Z,12.03
2019-04-11T09:23:46.374Z,13.65
2019-04-11T09:26:49.692Z,12.75
2019-04-11T09:29:32.322Z,12.45
2019-04-11T09:32:27.025Z,12.37
2019-04-11T09:35:12.304Z,11.53
2019-04-11T09:37:51.695Z,12.15
2019-04-11T09:40:52.041Z,12.78
2019-04-11T09:43:33.914Z,12.13
2019-04-11T09:46:30.584Z,11.83
2019-04-11T09:49:39.606Z,12.88
2019-04-11T09:52:36.733Z,11.93
2019-04-11T09:55:37.431Z,11.63
2019-04-11T09:58:27.396Z,12.50
2019-04-11T10:01:21.886Z,11.30
2019-04-11T10:04:01.543Z,11.43
2019-04-11T10:06:57.093Z,12.23
2019-04-11T10:10:00.176Z,12.47
2019-04-11T10:13:02.669Z,10.80
2019-04-11T10:15:51.588Z,12.23
2019-04-11T10:18:47.944Z,12.75
2019-04-11T10:21:25.936Z,12.10
2019-04-11T10:24:20.890Z,11.65
2019-04-11T10:27:08.817Z,10.75
2019-04-11T10:30:04.541Z,10.90
2019-04-11T10:32:47.611Z,11.43
2019-04-11T10:35:46.209Z,11.43
2019-04-11T10:38:24.582Z,11.22
2019-04-11T10:41:20.870Z,12.07
2019-04-11T10:43:59.391Z,12.23
2019-04-11T10:46:51.541Z,11.12
2019-04-11T10:49:54.657Z,10.90
2019-04-11T10:52:36.210Z,11.28
2019-04-11T10:55:17.703Z,11.60
2019-04-11T10:58:26.992Z,11.30
2019-04-11T11:01:33.794Z,11.90
2019-04-11T11:04:17.888Z,11.57
2019-04-11T11:06:58.709Z,12.43
2019-04-11T11:09:58.682Z,10.90
2019-04-11T11:12:55.827Z,12.18
2019-04-11T11:15:41.909Z,11.65
2019-04-11T11:19:15.782Z,12.23
2019-04-11T11:21:33.290Z,11.80
2019-04-11T11:24:31.784Z,12.35
2019-04-11T11:27:09.599Z,11.10
2019-04-11T11:30:18.828Z,12.65
2019-04-11T11:32:56.593Z,12.40
2019-04-11T11:36:04.594Z,12.68
2019-04-11T11:38:43.997Z,12.28
2019-04-11T11:41:42.746Z,12.53
2019-04-11T11:44:20.619Z,12.60
2019-04-11T11:47:17.432Z,12.13
2019-04-11T11:50:00.512Z,12.65
2019-04-11T11:53:08.222Z,12.58
2019-04-11T11:55:43.247Z,13.25
2019-04-11T11:58:44.191Z,13.22
2019-04-11T12:01:22.321Z,13.20
2019-04-11T12:04:35.439Z,12.82
2019-04-11T12:07:11.125Z,12.78
2019-04-11T12:10:13.456Z,13.18
2019-04-11T12:13:11.610Z,13.10
2019-04-11T12:16:10.066Z,13.25
2019-04-11T12:19:15.956Z,13.68
2019-04-11T12:21:53.626Z,13.72
2019-04-11T12:24:48.302Z,14.73
2019-04-11T12:27:37.145Z,13.30
2019-04-11T12:30:26.610Z,13.13
2019-04-11T12:33:21.548Z,13.80
2019-04-11T12:36:08.037Z,12.88
2019-04-11T12:38:55.468Z,12.68
2019-04-11T12:41:38.863Z,12.70
2019-04-11T12:44:35.048Z,13.85
2019-04-11T12:47:38.740Z,12.85
2019-04-11T12:50:34.131Z,12.40
2019-04-11T12:53:13.205Z,12.58
2019-04-11T12:56:09.699Z,13.38
2019-04-11T12:59:05.501Z,12.93
2019-04-11T13:02:09.964Z,11.90
2019-04-11T13:04:48.879Z,12.10
2019-04-11T13:07:38.535Z,12.95
2019-04-11T13:10:25.608Z,12.47
2019-04-11T13:13:21.333Z,12.07
2019-04-11T13:16:11.509Z,12.88
2019-04-11T13:19:05.070Z,12.25
2019-04-11T13:21:55.101Z,12.23
2019-04-11T13:24:49.122Z,11.95
2019-04-11T13:27:30.382Z,12.28
2019-04-11T13:30:45.229Z,12.67
2019-04-11T13:33:28.401Z,12.93
2019-04-11T13:36:37.267Z,12.15
2019-04-11T13:39:14.588Z,12.50
2019-04-11T13:42:10.772Z,13.08
2019-04-11T13:44:48.714Z,12.07
2019-04-11T13:47:42.955Z,12.53
2019-04-11T13:50:21.373Z,11.68
2019-04-11T13:53:15.934Z,12.07
2019-04-11T13:55:53.137Z,11.63
2019-04-11T13:59:00.609Z,11.80
2019-04-11T14:01:39.715Z,12.28
2019-04-11T14:04:23.875Z,11.65
2019-04-11T14:07:02.705Z,11.75
2019-04-11T14:09:45.945Z,10.38
2019-04-11T14:12:26.149Z,10.58
2019-04-11T14:15:08.938Z,11.15
2019-04-11T14:17:59.254Z,10.45
2019-04-11T14:20:48.832Z,10.30
2019-04-11T14:23:44.460Z,10.08
2019-04-11T14:26:52.538Z,10.18
2019-04-11T14:29:54.047Z,9.08
2019-04-11T14:32:33.153Z,9.77
2019-04-11T14:35:41.399Z,9.30
2019-04-11T14:38:24.315Z,9.08
2019-04-11T14:41:23.138Z,9.33
2019-04-11T14:44:02.660Z,10.13
2019-04-11T14:47:06.870Z,9.30
2019-04-11T14:49:46.214Z,8.93
2019-04-11T14:52:42.281Z,8.63
2019-04-11T14:55:20.750Z,9.15
2019-04-11T14:58:25.040Z,8.93
2019-04-11T15:01:04.384Z,8.45
2019-04-11T15:04:05.976Z,9.08
2019-04-11T15:06:47.212Z,8.53
2019-04-11T15:09:46.505Z,8.73
2019-04-11T15:12:27.624Z,8.40
2019-04-11T15:15:26.608Z,8.58
2019-04-11T15:18:05.501Z,8.70
2019-04-11T15:20:55.485Z,8.15
2019-04-11T15:23:51.976Z,8.58
2019-04-11T15:26:47.814Z,7.78
2019-04-11T15:29:31.114Z,7.42
2019-04-11T15:32:45.299Z,7.90
2019-04-11T15:35:22.637Z,8.08
2019-04-11T15:38:16.850Z,7.60
2019-04-11T15:40:57.781Z,7.58
2019-04-11T15:43:52.418Z,7.50
2019-04-11T15:46:31.829Z,7.85
2019-04-11T15:49:40.079Z,7.75
2019-04-11T15:52:21.011Z,8.00
2019-04-11T15:55:18.175Z,8.38
2019-04-11T15:57:58.169Z,8.53
2019-04-11T16:00:57.594Z,8.70
2019-04-11T16:03:37.877Z,8.65
2019-04-11T16:06:48.904Z,8.18
2019-04-11T16:09:26.447Z,7.65
2019-04-11T16:12:26.819Z,7.37
2019-04-11T16:15:13.605Z,7.80
2019-04-11T16:18:24.050Z,7.22
2019-04-11T16:21:05.774Z,7.60
2019-04-11T16:23:52.315Z,13.13
2019-04-11T16:26:42.744Z,13.45
2019-04-11T16:29:41.622Z,8.88
2019-04-11T16:32:19.873Z,7.60
2019-04-11T16:35:10.698Z,7.22
2019-04-11T16:37:48.889Z,7.08
2019-04-11T16:40:54.121Z,7.70
2019-04-11T16:43:32.313Z,7.50
2019-04-11T16:46:30.958Z,7.15
2019-04-11T16:49:07.625Z,8.45
2019-04-11T16:51:44.992Z,7.72
2019-04-11T16:54:22.378Z,7.65
2019-04-11T16:56:59.828Z,7.58
2019-04-11T16:59:36.798Z,7.53
2019-04-11T17:02:13.847Z,7.45
2019-04-11T17:04:51.343Z,7.92
2019-04-11T17:07:37.353Z,7.97
2019-04-11T17:10:16.492Z,8.73
2019-04-11T17:12:56.026Z,10.65
2019-04-11T17:15:36.476Z,9.63
2019-04-11T17:18:14.187Z,9.20
2019-04-11T17:20:51.836Z,8.38
2019-04-11T17:23:30.338Z,8.65
2019-04-11T17:26:08.034Z,8.48
2019-04-11T17:28:45.341Z,10.03
2019-04-11T17:31:25.717Z,8.53
2019-04-11T17:34:02.518Z,8.23
2019-04-11T17:36:41.963Z,8.65
2019-04-11T17:39:23.315Z,7.95
2019-04-11T17:42:00.502Z,7.35
2019-04-11T17:44:37.910Z,8.40
2019-04-11T17:47:16.571Z,7.80
2019-04-11T17:49:53.272Z,8.20
2019-04-11T17:52:30.368Z,7.47
2019-04-11T17:55:08.058Z,7.58
2019-04-11T17:57:45.724Z,7.28
2019-04-11T18:00:30.791Z,7.70
2019-04-11T18:03:11.776Z,7.58
2019-04-11T18:05:47.114Z,6.92
2019-04-11T18:08:25.154Z,6.40
2019-04-11T18:11:02.348Z,7.12
2019-04-11T18:13:39.706Z,7.25
2019-04-11T18:16:17.422Z,6.92
2019-04-11T18:18:55.418Z,6.67
2019-04-11T18:21:34.862Z,7.00
2019-04-11T18:24:11.113Z,8.75
2019-04-11T18:26:51.749Z,8.00
2019-04-11T18:29:28.687Z,8.63
2019-04-11T18:32:06.583Z,7.58
2019-04-11T18:34:44.738Z,7.92
2019-04-11T18:37:22.452Z,6.83
2019-04-11T18:39:59.233Z,7.05
2019-04-11T18:42:36.814Z,7.47
2019-04-11T18:45:13.791Z,8.00
2019-04-11T18:47:50.824Z,7.22
2019-04-11T18:50:28.931Z,7.25
2019-04-11T18:53:06.187Z,7.42
2019-04-11T18:55:43.705Z,7.05
2019-04-11T18:58:21.233Z,7.10
2019-04-11T19:00:59.495Z,6.50
2019-04-11T19:03:41.355Z,6.80
2019-04-11T19:06:27.485Z,7.40
2019-04-11T19:08:57.568Z,7.67
2019-04-11T19:11:35.079Z,6.47
2019-04-11T19:14:15.773Z,8.28
2019-04-11T19:16:51.785Z,7.80
2019-04-11T19:19:28.801Z,7.87
2019-04-11T19:22:08.503Z,7.90
2019-04-11T19:24:45.158Z,7.30
2019-04-11T19:27:22.259Z,8.28
2019-04-11T19:29:59.302Z,7.37
2019-04-11T19:32:37.502Z,7.72
2019-04-11T19:35:14.998Z,8.05
2019-04-11T19:37:52.265Z,8.25
2019-04-11T19:40:30.576Z,7.55
2019-04-11T19:43:09.578Z,7.95
2019-04-11T19:45:49.811Z,8.43
2019-04-11T19:48:25.800Z,8.18
2019-04-11T19:51:03.453Z,7.55
2019-04-11T19:53:41.690Z,8.15
2019-04-11T19:56:33.741Z,8.28
2019-04-11T19:59:11.239Z,8.15
2019-04-11T20:01:50.826Z,8.45
2019-04-11T20:04:27.620Z,7.95
2019-04-11T20:07:04.739Z,8.23
2019-04-11T20:09:42.021Z,8.68
2019-04-11T20:12:19.616Z,10.13
2019-04-11T20:14:57.207Z,10.30
2019-04-11T20:17:44.045Z,9.53
2019-04-11T20:20:14.527Z,9.08
2019-04-11T20:22:58.852Z,9.28
2019-04-11T20:25:32.086Z,8.60
2019-04-11T20:28:09.367Z,7.75
2019-04-11T20:30:46.870Z,7.50
2019-04-11T20:33:27.316Z,7.70
2019-04-11T20:36:03.334Z,7.03
2019-04-11T20:38:40.221Z,8.50
2019-04-11T20:41:17.199Z,6.83
2019-04-11T20:43:56.881Z,7.80
2019-04-11T20:46:53.280Z,7.70
2019-04-11T20:49:30.406Z,7.15
2019-04-11T20:52:07.111Z,7.25
2019-04-11T20:54:45.382Z,7.20
2019-04-11T20:57:26.274Z,7.05
2019-04-11T21:00:03.746Z,6.90
2019-04-11T21:02:41.343Z,7.53
2019-04-11T21:05:18.821Z,7.70
2019-04-11T21:08:02.555Z,7.65
2019-04-11T21:10:36.905Z,7.00
2019-04-11T21:13:13.999Z,6.95
2019-04-11T21:15:50.823Z,7.33
2019-04-11T21:18:28.808Z,7.60
2019-04-11T21:21:06.162Z,7.50
2019-04-11T21:23:43.903Z,7.72
2019-04-11T21:26:20.802Z,7.62
2019-04-11T21:28:59.638Z,7.50
2019-04-11T21:31:37.187Z,7.83
2019-04-11T21:34:14.843Z,7.15
2019-04-11T21:36:52.469Z,7.17
2019-04-11T21:39:29.785Z,7.60
2019-04-11T21:42:06.990Z,7.80
2019-04-11T21:44:44.009Z,7.62
2019-04-11T21:47:21.175Z,7.75
2019-04-11T21:49:58.170Z,8.55
2019-04-11T21:52:35.279Z,7.78
2019-04-11T21:55:15.198Z,8.00
2019-04-11T21:57:51.920Z,9.73
2019-04-11T22:00:40.839Z,8.43
2019-04-11T22:03:23.990Z,8.65
2019-04-11T22:06:00.092Z,8.48
2019-04-11T22:08:37.819Z,8.40
2019-04-11T22:11:15.271Z,8.43
2019-04-11T22:13:52.188Z,8.68
2019-04-11T22:16:28.983Z,9.05
2019-04-11T22:19:07.410Z,9.30
2019-04-11T22:21:45.999Z,7.83
2019-04-11T22:24:23.914Z,8.93
2019-04-11T22:27:01.315Z,7.78
2019-04-11T22:29:39.461Z,8.08
2019-04-11T22:32:19.826Z,7.90
2019-04-11T22:34:59.212Z,7.87
2019-04-11T22:37:36.428Z,7.95
2019-04-11T22:40:13.830Z,8.05
2019-04-11T22:42:51.057Z,8.60
2019-04-11T22:45:28.533Z,8.15
2019-04-11T22:48:08.501Z,8.15
2019-04-11T22:50:44.976Z,15.95
2019-04-11T22:53:22.342Z,12.50
2019-04-11T22:55:59.256Z,7.85
2019-04-11T22:58:36.388Z,8.23
2019-04-11T23:01:13.980Z,8.78
2019-04-11T23:03:58.983Z,8.98
2019-04-11T23:09:12.592Z,8.25
2019-04-11T23:11:49.489Z,8.33
2019-04-11T23:14:27.000Z,9.03
2019-04-11T23:17:04.286Z,7.80
2019-04-11T23:19:43.920Z,12.82
2019-04-11T23:22:20.803Z,10.82
2019-04-11T23:24:58.622Z,9.70
2019-04-11T23:27:36.077Z,11.73
2019-04-11T23:30:15.906Z,10.58
2019-04-11T23:32:53.090Z,13.05
2019-04-11T23:35:31.571Z,9.73
2019-04-11T23:38:09.098Z,9.30
2019-04-11T23:40:46.508Z,9.43
2019-04-11T23:43:22.886Z,9.35
2019-04-11T23:46:00.570Z,10.63
2019-04-11T23:48:38.002Z,9.60
2019-04-11T23:51:16.016Z,8.85
2019-04-11T23:53:53.244Z,8.80
2019-04-11T23:56:31.346Z,9.03
2019-04-11T23:59:08.373Z,10.23
